Newcastle, Wyoming
Current Conditions -  °F | °C
As of 8:35 AM on Friday 26 Dec 2014 (Local Time) from KECS Reporting Station
Overcast Overcast  
Wind Chill: 19°   Ceiling: 1200
Heat Index: 19°   Visibility: 10mi
Dew Point: 14°   Wind: 0mph
Humidity: 80%   Direction: NA
Pressure: 30.03"   Gusts: NA
Location:  43.85°N, 104.2°W
Report Text: KECS 261535Z AUTO 00000KT 10SM OVC012 M07/M10 A3003 RMK AO2
Loading
Personal Weather Stations






























Interactive Weather Map New forecast layout! Learn more

10-Day Weather Forecast

Advertisements
Track Severe Weather on mobile